Řízení letového provozu České republiky  
Aktualizace dat:  27.05.2016 06:19:07 UTC English version
   METEO Zobrazení stránky:  27.05.2016 06:24:58 UTC  
vysvětlivky
METAR EDDB 270550Z 27003KT 240V320 0400 R25R/0350N R07R/0350N FG BKN001 11/11 Q1017 BECMG 0800 FG SCT001=
METAR EDDC 270550Z VRB01KT 9999 FEW033 BKN260 14/11 Q1017 NOSIG=
METAR EDDE 270550Z VRB01KT CAVOK 12/09 Q1017 NOSIG=
METAR EDDF 270550Z 04007KT 010V070 9999 FEW008 SCT040 BKN110 15/13 Q1015 NOSIG=
METAR EDDM 270550Z 05003KT 020V080 CAVOK 15/13 Q1015 NOSIG=
METAR EDDN 270550Z 31004KT 290V350 9999 -RA FEW041 BKN080 13/12 Q1016 TEMPO SHRA BKN040CB=
METAR EDDP 270550Z VRB02KT 9000 NSC 13/12 Q1017 NOSIG=
METAR EDDT 270550Z VRB02KT 0500 R26R/0550V1700U R26L/0550V1000U FG BKN001 13/12 Q1017 BECMG 0800 FG=
METAR EDQM 270550Z VRB02KT 8000 FEW047 SCT160 12/09 Q1017=
METAR EPBY 270600Z VRB01KT 7000 BKN046 17/14 Q1017 =
METAR EPGD 270600Z 13004KT 100V180 9999 SCT037 13/12 Q1017 =
METAR EPKK 270600Z VRB02KT 7000 NSC 15/12 Q1018 =
METAR EPKT 270600Z VRB02KT 5000 BR NSC 14/12 Q1018 =
METAR EPLL 270600Z VRB02KT 9999 FEW013 16/13 Q1018 =
METAR EPPO 270600Z 18005KT 150V210 7000 NSC 16/13 Q1017 =
METAR EPRZ 270600Z 28003KT 180V330 8000 SCT006 16/13 Q1018 =
METAR EPWA 270600Z VRB02KT 8000 NSC 17/14 Q1018 NOSIG=
METAR EPWR 270600Z 13003KT 100V180 8000 NSC 16/13 Q1018 =
METAR LHBP 270600Z 11006KT CAVOK 19/17 Q1018 NOSIG=
METAR LHSM 270545Z 00000KT 2000 VCFG FEW083 BKN200 17/15 Q1017=
METAR LKCV 270600Z 00000KT CAVOK 16/12 Q1017 NOSIG=
METAR LKKB 270600Z 07003KT 040V110 6000 NSC 13/11 Q1016 NOSIG =
METAR LKKU 270600Z 01006KT 5000 BR NSC 14/12 Q1017=
METAR LKKV 270600Z VRB01KT CAVOK 15/11 Q1017 RMK REG QNH 1015=
METAR LKLN NIL
SPECI LKMT 270615Z VRB02KT 1200 R22/0800 R04/1600U BR SCT001 12/12 Q1018 RMK REG QNH 1015=
METAR LKNA 270600Z VRB02KT 3500 BR NSC 14/12 Q1018 NOSIG=
METAR LKPD 270600Z VRB02KT CAVOK 14/11 Q1017 NOSIG =
METAR LKPR 270600Z 06003KT 010V100 4000 BR FEW003 13/12 Q1016 NOSIG RMK REG QNH 1015=
METAR LKTB 270600Z 06006KT 030V090 6000 NSC 16/12 Q1017 NOSIG RMK REG QNH 1015=
METAR LKVO 270600Z 10005KT 5000 BR NSC 14/12 Q1017=
METAR LOWI 270550Z 24003KT 170V300 9999 FEW100 BKN300 14/11 Q1017 NOSIG=
METAR LOWL 270550Z 10004KT 070V140 CAVOK 16/13 Q1015 NOSIG=
METAR LOWS 270550Z 15009KT CAVOK 17/11 Q1015 NOSIG=
METAR LOWW 270550Z 09003KT 050V130 6000 SCT250 16/14 Q1017 NOSIG=
METAR LZIB 270600Z 02004KT CAVOK 17/13 Q1017 NOSIG=
METAR LZKZ 270600Z 02010KT CAVOK 18/12 Q1018 NOSIG=
METAR LZPP 270600Z 03005KT 350V060 CAVOK 15/13 Q1017=
METAR LZSL 270600Z 00000KT CAVOK 15/11 Q1019=
METAR LZTT 270600Z 06004KT 040V100 9999 3000E BCFG FEW036 12/10 Q1019 NOSIG=
METAR LZZI 270600Z 07004KT CAVOK 14/11 Q1018=